India Meteorological Department
Airport METARs
Date : 14-08-2018
Sl. # Airport METAR
1 Agartala VEAT 141500Z 00000KT 4000 -TSRA SCT018 FEW030CB BKN100 30/28 Q0999 TEMPO 1500 TSRA=
2 Ahmedabad VAAH 141530Z 21006KT 4000 HZ SCT018 BKN080 31/25 Q1001 NOSIG=
3 Amritsar VIAR 141500Z 00000KT 4000 HZ FEW040 SCT100 28/23 Q0998 NOSIG=
4 Aurangabad VAAU 141500Z 25008KT 6000 FEW020 26/21 Q1005 NOSIG=
5 Bangalore VOBL 141600Z 27010KT 4000 BR SCT010 SCT012 BKN080 21/21 Q1011 NOSIG=
6 Baroda VABO 141500Z 25006KT 6000 SCT015 SCT020 BKN080 29/25 Q1000 NOSIG=
7 Bhaunagar VABV 141400Z 26010KT 4000 FU SCT025 SCT080 32/23 Q1000=
8 Bhopal VABP 141530Z 27004KT 5000 HZ SCT020 BKN100 26/23 Q1003 NOSIG=
9 Bhubaneswar VEBS 141530Z 34003KT 5000 TS FEW020 FEW030CB SCT100 27/26 Q0996 NOSIG=
10 Chennai VOMM 141600Z 23007KT 2500 TSRA SCT018 FEW025CB BKN090 26/25 Q1004 NOSIG=
11 Coimbatore VOCB 141600Z 20006KT 4000 -DZ FEW008 SCT012 OVC080 23/22 Q1009 NOSIG=
12 Colombo VCBI 141540Z 25007KT 220V290 9000 SCT017 24/23 Q1010 NOSIG=
13 Delhi VIDP 141530Z 07004KT 4000 HZ FEW030 SCT100 32/26 Q0999 NOSIG=
14 Dehradun VIDN 141430Z 03003KT 2000 BR SCT025 SCT060 29/25 Q0999=
15 Gauhati VEGT 141600Z 20003KT 3000 BR SCT018 FEW025CB BKN100 29/28 Q1000 NOSIG=
16 Gaya VEGY 141600Z 09008KT 3000 HZ SCT018 BKN100 29/27 Q0999 =
17 Goa VOGO 141400Z 30010G20KT 3500 DZ FEW006 SCT010 OVC080 26/24 Q1005 TEMPO 2500 RA/DZ=
18 Hyderabad VOHS 141600Z 27004KT 6000 FEW010 SCT020 BKN100 25/22 Q1006 NOSIG=
19 Indore VAID 141500Z 27004KT 4000 HZ SCT200 25/22 Q1004 NOSIG=
20 Jaipur VIJP 141530Z 20004KT 2500 HZ FEW030 30/24 Q1001 NOSIG=
21 Kochi VOCI 141600Z 27007KT 1500 RA SCT008 SCT012 OVC080 24/23 Q1009 BECMG 2000 -RA=
22 Kolkata VECC 141530Z 08006KT 3500 HZ SCT020 SCT100 29/28 Q0997 NOSIG=
23 Kozhikode VOCL 141600Z 28010KT 3000 RA SCT004 SCT012 FEW025CB OVC080 24/21 Q1008 NOSIG=
24 Lucknow VILK 141530Z 00000KT 3000 HZ SCT020 BKN100 31/28 Q0999 NOSIG=
25 Madurai VOMD 141600Z 24004KT 5000 HZ SCT016 BKN090 29/22 Q1008 NOSIG=
26 Mumbai VABB 141600Z 26010KT 3000 HZ SCT018 BKN100 28/25 Q1004 NOSIG=
27 Nagpur VANP 141530Z 25002KT 3000 HZ SCT020 BKN090 29/24 Q1002 NOSIG=
28 Ozar VAOZ 141400Z 27006KT 6000 SCT015 SCT025 BKN100 24/23 Q1006 TEMPO 5000 -RA=
29 Patna VEPT 141600Z 00000KT 3500 HZ SCT015 BKN100 29/26 Q0998 NOSIG=
30 Raipur VERP 141530Z 27006KT 6000 BKN020 OVC100 27/26 Q1001 NOSIG=
31 Surat VASU 141530Z 22008KT 5000 HZ FEW018 BKN080 28/26 Q1001=
32 Ranchi VERC 141530Z 00000KT 3000 -RA SCT015 FEW030CB BKN100 26/24 Q1002 NOSIG=
33 Trichy VOTR 141600Z 27012G22KT 6000 SCT015 BKN100 27/20 Q1006 NOSIG=
34 Trivandrum VOTV 141600Z 15003KT 3000 HZ FEW008 SCT012 FEW025CB OVC080 25/24 Q1009 NOSIG=
35 Varanasi VEBN 141530Z 02003KT 3000 HZ FEW025 SCT100 31/26 Q0998 NOSIG=
36 Vizag VOVZ 141430Z VRB02KT 5000 -DZ/BR FEW012 SCT014 OVC080 27/26 Q0997 NOSIG =
37 Male VRMM 141600Z 24013KT 9999 FEW017TCU BKN260 28/24 Q1011 TEMPO 5000 -SHRA FEW018CB=
38 Gan VRMG 141500Z 16012KT 7000 -SHRA SCT016 FEW017CB OVC250 27/26 Q1011 CB S,SW,OVHD TEMPO 23015G27KT 4000 TSRA=
39 Kathmandu VNKT 141550Z 25004KT 7000 FEW015 FEW025CB SCT030 BKN100 24/22 Q1009 NOSIG CB TO SE AND S=
40 Dhaka VGHS 141530Z 19005KT 4000 HZ SCT012 FEW025CB 31/26 Q0999 TEMPO TSRA=
41 Colombo VCBI 141540Z 25007KT 220V290 9000 SCT017 24/23 Q1010 NOSIG=
42 Karachi OPKC 141525Z 23012KT 6000 SCT020 BKN030 28/24 Q0999 NOSIG=
43 Lahore OPLA 141525Z 03005KT 5000 FU FEW100 28/24 Q0998 RMK A29.48 RMK QFE973=
44 Gwalior VIGR 141500Z 00000KT 4000 HZ SCT100 29/26 Q0999=
45 Pune VAPO 141530Z 27007KT 5000 -RA SCT012 SCT015 BKN080 23/22 Q1008 TEMPO 3000 RA=

 

--- End of List ---